createdAt,value
2023-02-12T00:01:32.803Z,7.62
2023-02-12T00:03:59.463Z,7.58
2023-02-12T00:06:26.544Z,7.59
2023-02-12T00:08:55.053Z,7.50
2023-02-12T00:11:26.697Z,7.50
2023-02-12T00:13:55.856Z,7.47
2023-02-12T00:16:25.755Z,7.46
2023-02-12T00:18:54.696Z,7.46
2023-02-12T00:21:22.658Z,7.44
2023-02-12T00:23:49.959Z,7.54
2023-02-12T00:26:19.042Z,7.45
2023-02-12T00:28:45.838Z,7.53
2023-02-12T00:31:17.891Z,7.47
2023-02-12T00:33:45.039Z,7.47
2023-02-12T00:36:17.078Z,7.49
2023-02-12T00:38:43.826Z,7.54
2023-02-12T00:41:11.286Z,7.47
2023-02-12T00:43:38.023Z,7.54
2023-02-12T00:46:05.764Z,7.57
2023-02-12T00:48:33.571Z,7.53
2023-02-12T00:51:00.419Z,7.49
2023-02-12T00:53:27.529Z,7.49
2023-02-12T00:55:54.546Z,7.54
2023-02-12T00:58:21.935Z,7.49
2023-02-12T01:00:48.655Z,7.52
2023-02-12T01:03:15.906Z,7.61
2023-02-12T01:05:43.357Z,7.55
2023-02-12T01:08:13.495Z,7.49
2023-02-12T01:10:40.870Z,7.56
2023-02-12T01:13:07.573Z,7.51
2023-02-12T01:15:34.208Z,7.57
2023-02-12T01:18:00.888Z,7.56
2023-02-12T01:20:27.678Z,7.62
2023-02-12T01:22:54.363Z,7.62
2023-02-12T01:25:21.198Z,7.63
2023-02-12T01:27:48.373Z,7.64
2023-02-12T01:30:16.082Z,7.60
2023-02-12T01:32:43.988Z,7.56
2023-02-12T01:35:10.697Z,7.53
2023-02-12T01:37:38.128Z,7.54
2023-02-12T01:40:08.019Z,7.59
2023-02-12T01:42:35.364Z,7.56
2023-02-12T01:45:14.105Z,7.64
2023-02-12T01:47:42.460Z,7.59
2023-02-12T01:50:13.815Z,7.57
2023-02-12T01:52:43.700Z,7.57
2023-02-12T01:55:11.662Z,7.58
2023-02-12T01:57:42.790Z,7.60
2023-02-12T02:00:14.321Z,7.61
2023-02-12T02:02:44.976Z,7.60
2023-02-12T02:05:15.443Z,7.54
2023-02-12T02:07:44.093Z,7.57
2023-02-12T02:10:11.378Z,7.57
2023-02-12T02:12:58.041Z,7.54
2023-02-12T02:15:30.590Z,7.50
2023-02-12T02:18:02.659Z,7.48
2023-02-12T02:20:35.405Z,7.54
2023-02-12T02:23:11.127Z,7.52
2023-02-12T02:26:10.143Z,7.55
2023-02-12T02:28:39.746Z,7.53
2023-02-12T02:31:21.679Z,7.63
2023-02-12T02:33:56.825Z,7.65
2023-02-12T02:36:59.837Z,7.60
2023-02-12T02:39:39.329Z,7.53
2023-02-12T02:42:09.856Z,7.60
2023-02-12T02:45:02.127Z,7.58
2023-02-12T02:47:54.303Z,7.50
2023-02-12T02:50:25.013Z,7.61
2023-02-12T02:53:03.611Z,7.61
2023-02-12T02:55:38.907Z,7.47
2023-02-12T02:58:32.305Z,7.52
2023-02-12T03:01:11.522Z,7.50
2023-02-12T03:03:38.087Z,7.51
2023-02-12T03:06:11.054Z,7.48
2023-02-12T03:08:50.977Z,7.45
2023-02-12T03:11:22.024Z,7.46
2023-02-12T03:13:56.079Z,7.43
2023-02-12T03:16:36.341Z,7.41
2023-02-12T03:19:06.818Z,7.54
2023-02-12T03:21:40.216Z,7.49
2023-02-12T03:24:15.523Z,7.49
2023-02-12T03:26:50.669Z,7.56
2023-02-12T03:29:17.351Z,7.50
2023-02-12T03:32:16.299Z,7.50
2023-02-12T03:35:25.494Z,7.50
2023-02-12T03:38:05.802Z,7.52
2023-02-12T03:40:56.426Z,7.49
2023-02-12T03:43:27.788Z,7.58
2023-02-12T03:46:01.804Z,7.57
2023-02-12T03:48:34.826Z,7.51
2023-02-12T03:51:12.530Z,7.53
2023-02-12T03:53:39.201Z,7.51
2023-02-12T03:56:11.895Z,7.46
2023-02-12T03:58:41.294Z,7.42
2023-02-12T04:01:08.612Z,7.44
2023-02-12T04:03:35.613Z,7.42
2023-02-12T04:06:02.254Z,7.42
2023-02-12T04:08:30.994Z,7.35
2023-02-12T04:11:19.496Z,7.34
2023-02-12T04:14:17.957Z,7.28
2023-02-12T04:16:54.254Z,7.31
2023-02-12T04:19:31.924Z,7.32
2023-02-12T04:22:17.781Z,7.27
2023-02-12T04:24:55.976Z,7.28
2023-02-12T04:27:29.484Z,7.28
2023-02-12T04:30:06.306Z,7.24
2023-02-12T04:33:03.811Z,7.24
2023-02-12T04:35:36.190Z,7.28
2023-02-12T04:38:12.578Z,7.29
2023-02-12T04:40:41.401Z,7.28
2023-02-12T04:43:08.655Z,7.25
2023-02-12T04:45:36.568Z,7.18
2023-02-12T04:48:04.795Z,7.15
2023-02-12T04:50:42.740Z,7.10
2023-02-12T04:53:10.515Z,7.09
2023-02-12T04:55:37.466Z,7.15
2023-02-12T04:58:04.155Z,7.13
2023-02-12T05:00:30.875Z,7.13
2023-02-12T05:02:57.658Z,6.97
2023-02-12T05:05:24.456Z,7.00
2023-02-12T05:07:51.636Z,7.01
2023-02-12T05:10:18.770Z,7.06
2023-02-12T05:12:45.544Z,7.03
2023-02-12T05:15:12.417Z,7.10
2023-02-12T05:17:39.143Z,7.07
2023-02-12T05:20:06.334Z,7.04
2023-02-12T05:22:33.108Z,7.02
2023-02-12T05:24:59.863Z,7.03
2023-02-12T05:27:26.543Z,7.10
2023-02-12T05:29:53.413Z,7.07
2023-02-12T05:32:20.150Z,7.07
2023-02-12T05:34:46.839Z,7.07
2023-02-12T05:37:13.488Z,7.12
2023-02-12T05:39:40.254Z,7.13
2023-02-12T05:42:06.923Z,7.08
2023-02-12T05:44:33.727Z,7.09
2023-02-12T05:47:00.428Z,7.09
2023-02-12T05:49:27.191Z,7.11
2023-02-12T05:51:53.811Z,7.13
2023-02-12T05:54:20.511Z,7.11
2023-02-12T05:56:47.943Z,7.12
2023-02-12T05:59:22.390Z,7.14
2023-02-12T06:01:51.561Z,7.14
2023-02-12T06:04:23.908Z,7.12
2023-02-12T06:06:55.802Z,7.13
2023-02-12T06:09:23.652Z,7.11
2023-02-12T06:11:50.344Z,7.12
2023-02-12T06:14:19.383Z,7.18
2023-02-12T06:16:48.130Z,7.16
2023-02-12T06:19:15.101Z,7.19
2023-02-12T06:21:42.051Z,7.17
2023-02-12T06:24:11.390Z,7.20
2023-02-12T06:26:38.081Z,7.21
2023-02-12T06:29:04.970Z,7.19
2023-02-12T06:31:34.513Z,7.24
2023-02-12T06:34:04.690Z,7.26
2023-02-12T06:36:31.607Z,7.28
2023-02-12T06:38:58.446Z,7.28
2023-02-12T06:41:25.126Z,7.33
2023-02-12T06:43:51.899Z,7.35
2023-02-12T06:46:18.702Z,7.33
2023-02-12T06:48:45.545Z,7.32
2023-02-12T06:51:18.170Z,7.38
2023-02-12T06:53:45.229Z,7.33
2023-02-12T06:56:13.936Z,7.35
2023-02-12T06:58:44.399Z,7.38
2023-02-12T07:01:18.013Z,7.42
2023-02-12T07:03:49.265Z,7.39
2023-02-12T07:06:16.122Z,7.37
2023-02-12T07:08:43.067Z,7.40
2023-02-12T07:11:12.406Z,7.35
2023-02-12T07:13:41.808Z,7.39
2023-02-12T07:16:12.492Z,7.41
2023-02-12T07:18:39.827Z,7.41
2023-02-12T07:21:08.182Z,7.43
2023-02-12T07:23:35.786Z,7.39
2023-02-12T07:26:05.329Z,7.39
2023-02-12T07:28:33.891Z,7.45
2023-02-12T07:31:07.069Z,7.43
2023-02-12T07:33:33.796Z,7.45
2023-02-12T07:36:01.540Z,7.47
2023-02-12T07:38:29.336Z,7.50
2023-02-12T07:40:58.813Z,7.52
2023-02-12T07:43:25.483Z,7.44
2023-02-12T07:45:52.209Z,7.49
2023-02-12T07:48:19.305Z,7.51
2023-02-12T07:50:46.048Z,7.50
2023-02-12T07:53:12.682Z,7.50
2023-02-12T07:55:43.408Z,7.53
2023-02-12T07:58:17.738Z,7.60
2023-02-12T08:00:44.411Z,7.62
2023-02-12T08:03:11.091Z,7.64
2023-02-12T08:05:37.760Z,7.65
2023-02-12T08:08:04.436Z,7.69
2023-02-12T08:10:32.451Z,7.74
2023-02-12T08:12:59.200Z,7.84
2023-02-12T08:15:25.936Z,7.82
2023-02-12T08:17:52.626Z,7.80
2023-02-12T08:20:19.363Z,7.87
2023-02-12T08:22:45.972Z,7.87
2023-02-12T08:25:12.766Z,7.96
2023-02-12T08:27:41.974Z,7.91
2023-02-12T08:30:09.117Z,7.90
2023-02-12T08:32:35.827Z,7.92
2023-02-12T08:35:02.502Z,7.98
2023-02-12T08:37:29.227Z,8.02
2023-02-12T08:39:55.834Z,8.03
2023-02-12T08:42:25.644Z,8.09
2023-02-12T08:44:52.254Z,8.13
2023-02-12T08:47:18.903Z,8.17
2023-02-12T08:49:45.637Z,8.22
2023-02-12T08:52:12.376Z,8.25
2023-02-12T08:54:39.087Z,8.34
2023-02-12T08:57:05.713Z,8.30
2023-02-12T08:59:32.532Z,8.40
2023-02-12T09:02:00.540Z,8.45
2023-02-12T09:04:29.004Z,8.51
2023-02-12T09:06:56.032Z,8.55
2023-02-12T09:09:23.135Z,8.39
2023-02-12T09:11:49.951Z,8.48
2023-02-12T09:14:18.782Z,8.67
2023-02-12T09:16:45.677Z,8.49
2023-02-12T09:19:13.879Z,8.47
2023-02-12T09:21:40.859Z,8.54
2023-02-12T09:24:08.467Z,8.45
2023-02-12T09:26:35.305Z,8.46
2023-02-12T09:29:03.518Z,8.56
2023-02-12T09:31:32.091Z,8.68
2023-02-12T09:34:02.348Z,8.63
2023-02-12T09:36:29.651Z,8.67
2023-02-12T09:38:59.203Z,8.69
2023-02-12T09:41:47.837Z,8.81
2023-02-12T09:44:27.669Z,8.80
2023-02-12T09:47:18.414Z,8.73
2023-02-12T09:50:17.725Z,8.76
2023-02-12T09:52:44.855Z,8.88
2023-02-12T09:55:16.242Z,8.92
2023-02-12T09:57:44.442Z,8.80
2023-02-12T10:00:31.550Z,8.94
2023-02-12T10:03:05.553Z,8.85
2023-02-12T10:05:41.179Z,8.98
2023-02-12T10:08:24.642Z,8.95
2023-02-12T10:11:20.880Z,8.89
2023-02-12T10:14:12.207Z,9.04
2023-02-12T10:17:00.769Z,9.14
2023-02-12T10:19:39.560Z,9.02
2023-02-12T10:22:18.368Z,9.17
2023-02-12T10:25:03.462Z,9.23
2023-02-12T10:27:52.083Z,9.27
2023-02-12T10:30:23.966Z,9.19
2023-02-12T10:33:05.424Z,9.29
2023-02-12T10:35:33.216Z,9.34
2023-02-12T10:38:07.789Z,9.35
2023-02-12T10:40:38.344Z,9.40
2023-02-12T10:43:05.305Z,9.38
2023-02-12T10:45:40.170Z,9.39
2023-02-12T10:48:21.621Z,9.50
2023-02-12T10:51:07.478Z,9.57
2023-02-12T10:53:45.142Z,9.62
2023-02-12T10:56:11.927Z,9.67
2023-02-12T10:58:50.073Z,9.39
2023-02-12T11:01:29.934Z,9.61
2023-02-12T11:03:58.948Z,9.79
2023-02-12T11:06:29.072Z,9.67
2023-02-12T11:08:59.953Z,9.81
2023-02-12T11:11:30.750Z,9.81
2023-02-12T11:14:21.229Z,9.90
2023-02-12T11:17:00.328Z,10.02
2023-02-12T11:19:29.770Z,9.87
2023-02-12T11:22:18.721Z,9.82
2023-02-12T11:24:47.153Z,9.74
2023-02-12T11:27:16.844Z,9.69
2023-02-12T11:29:45.313Z,10.05
2023-02-12T11:32:20.462Z,10.07
2023-02-12T11:35:17.902Z,10.16
2023-02-12T11:37:46.670Z,9.97
2023-02-12T11:40:24.288Z,9.86
2023-02-12T11:43:02.031Z,9.82
2023-02-12T11:45:35.518Z,9.96
2023-02-12T11:48:02.995Z,10.05
2023-02-12T11:50:33.421Z,9.99
2023-02-12T11:53:09.854Z,9.97
2023-02-12T11:55:39.955Z,10.07
2023-02-12T11:58:20.629Z,10.12
2023-02-12T12:00:54.016Z,10.04
2023-02-12T12:03:26.979Z,10.02
2023-02-12T12:06:02.453Z,9.93
2023-02-12T12:08:38.774Z,9.89
2023-02-12T12:11:12.809Z,9.74
2023-02-12T12:14:22.598Z,9.87
2023-02-12T12:17:34.041Z,9.99
2023-02-12T12:20:17.725Z,10.00
2023-02-12T12:22:55.347Z,10.00
2023-02-12T12:25:31.345Z,9.95
2023-02-12T12:28:08.142Z,9.91
2023-02-12T12:30:45.957Z,9.80
2023-02-12T12:33:46.542Z,9.78
2023-02-12T12:36:13.241Z,9.92
2023-02-12T12:39:08.522Z,9.96
2023-02-12T12:42:07.157Z,10.01
2023-02-12T12:44:51.790Z,9.95
2023-02-12T12:47:36.408Z,9.68
2023-02-12T12:50:12.386Z,9.60
2023-02-12T12:52:45.094Z,9.59
2023-02-12T12:55:48.684Z,9.57
2023-02-12T12:58:41.420Z,9.40
2023-02-12T13:01:53.476Z,9.44
2023-02-12T13:04:42.190Z,9.35
2023-02-12T13:07:33.594Z,9.38
2023-02-12T13:10:47.191Z,9.46
2023-02-12T13:13:29.333Z,9.34
2023-02-12T13:16:18.325Z,9.38
2023-02-12T13:19:15.747Z,9.30
2023-02-12T13:21:58.813Z,9.42
2023-02-12T13:24:30.977Z,9.38
2023-02-12T13:27:02.102Z,9.39
2023-02-12T13:29:38.645Z,9.31
2023-02-12T13:32:13.980Z,9.19
2023-02-12T13:34:45.218Z,9.28
2023-02-12T13:37:25.493Z,9.23
2023-02-12T13:39:53.137Z,9.20
2023-02-12T13:42:50.856Z,9.22
2023-02-12T13:45:34.873Z,9.20
2023-02-12T13:48:27.241Z,9.20
2023-02-12T13:51:09.338Z,9.14
2023-02-12T13:54:00.289Z,9.06
2023-02-12T13:56:33.757Z,9.16
2023-02-12T13:59:03.080Z,9.07
2023-02-12T14:01:49.776Z,9.06
2023-02-12T14:04:19.789Z,9.14
2023-02-12T14:07:01.163Z,9.20
2023-02-12T14:09:34.084Z,9.16
2023-02-12T14:12:04.171Z,9.19
2023-02-12T14:14:41.663Z,9.12
2023-02-12T14:17:30.851Z,9.08
2023-02-12T14:20:25.098Z,9.02
2023-02-12T14:22:51.661Z,8.94
2023-02-12T14:25:24.480Z,8.92
2023-02-12T14:28:09.560Z,8.86
2023-02-12T14:30:40.237Z,8.90
2023-02-12T14:33:07.078Z,8.85
2023-02-12T14:35:43.995Z,8.93
2023-02-12T14:38:17.778Z,8.95
2023-02-12T14:40:52.567Z,8.97
2023-02-12T14:43:31.684Z,8.85
2023-02-12T14:46:20.508Z,8.83
2023-02-12T14:49:04.927Z,8.77
2023-02-12T14:51:53.796Z,8.66
2023-02-12T14:54:32.841Z,8.71
2023-02-12T14:57:05.818Z,8.73
2023-02-12T14:59:39.104Z,8.71
2023-02-12T15:02:08.062Z,8.63
2023-02-12T15:04:38.219Z,8.55
2023-02-12T15:07:13.000Z,8.62
2023-02-12T15:09:47.856Z,8.54
2023-02-12T15:12:20.834Z,8.54
2023-02-12T15:15:13.212Z,8.58
2023-02-12T15:17:44.324Z,8.47
2023-02-12T15:20:23.737Z,8.44
2023-02-12T15:22:50.753Z,8.49
2023-02-12T15:25:28.220Z,8.41
2023-02-12T15:28:01.920Z,8.39
2023-02-12T15:30:32.374Z,8.42
2023-02-12T15:33:03.187Z,8.47
2023-02-12T15:35:32.519Z,8.45
2023-02-12T15:38:01.168Z,8.43
2023-02-12T15:40:31.902Z,8.43
2023-02-12T15:43:06.081Z,8.41
2023-02-12T15:45:35.596Z,8.38
2023-02-12T15:48:23.356Z,8.39
2023-02-12T15:50:55.855Z,8.40
2023-02-12T15:53:24.575Z,8.38
2023-02-12T15:55:52.126Z,8.40
2023-02-12T15:58:28.959Z,8.42
2023-02-12T16:01:01.306Z,8.33
2023-02-12T16:03:37.232Z,8.32
2023-02-12T16:06:13.392Z,8.28
2023-02-12T16:08:42.389Z,8.31
2023-02-12T16:11:16.502Z,8.35
2023-02-12T16:13:47.178Z,8.31
2023-02-12T16:16:13.761Z,8.29
2023-02-12T16:18:42.068Z,8.33
2023-02-12T16:21:22.645Z,8.30
2023-02-12T16:23:51.654Z,8.29
2023-02-12T16:26:23.598Z,8.27
2023-02-12T16:28:54.474Z,8.28
2023-02-12T16:31:24.622Z,8.32
2023-02-12T16:33:56.044Z,8.24
2023-02-12T16:36:22.766Z,8.28
2023-02-12T16:38:55.470Z,8.21
2023-02-12T16:41:24.241Z,8.25
2023-02-12T16:43:59.973Z,8.26
2023-02-12T16:46:28.960Z,8.23
2023-02-12T16:48:58.930Z,8.18
2023-02-12T16:51:27.446Z,8.19
2023-02-12T16:54:04.785Z,8.14
2023-02-12T16:56:38.589Z,8.15
2023-02-12T16:59:05.635Z,8.14
2023-02-12T17:01:36.920Z,8.17
2023-02-12T17:04:14.362Z,8.18
2023-02-12T17:06:41.117Z,8.10
2023-02-12T17:09:07.805Z,8.05
2023-02-12T17:11:34.653Z,8.08
2023-02-12T17:14:01.326Z,8.07
2023-02-12T17:16:31.271Z,8.04
2023-02-12T17:19:00.028Z,8.06
2023-02-12T17:21:40.371Z,8.07
2023-02-12T17:24:14.424Z,8.08
2023-02-12T17:26:41.157Z,8.02
2023-02-12T17:29:07.843Z,8.00
2023-02-12T17:31:36.579Z,7.93
2023-02-12T17:34:04.711Z,7.98
2023-02-12T17:36:31.457Z,7.96
2023-02-12T17:38:58.184Z,7.95
2023-02-12T17:41:24.868Z,7.96
2023-02-12T17:43:51.627Z,7.98
2023-02-12T17:46:21.848Z,7.97
2023-02-12T17:48:48.638Z,7.96
2023-02-12T17:51:15.645Z,7.91
2023-02-12T17:53:42.937Z,7.88
2023-02-12T17:56:15.277Z,7.94
2023-02-12T17:58:42.890Z,7.87
2023-02-12T18:01:12.399Z,7.85
2023-02-12T18:03:39.572Z,7.96
2023-02-12T18:06:07.333Z,7.88
2023-02-12T18:08:34.625Z,7.91
2023-02-12T18:11:11.475Z,7.87
2023-02-12T18:13:39.396Z,7.88
2023-02-12T18:16:10.358Z,7.86
2023-02-12T18:18:38.418Z,7.79
2023-02-12T18:21:13.636Z,7.86
2023-02-12T18:23:40.760Z,7.89
2023-02-12T18:26:15.863Z,7.81
2023-02-12T18:28:42.815Z,7.80
2023-02-12T18:31:10.627Z,7.80
2023-02-12T18:33:38.941Z,7.83
2023-02-12T18:36:08.980Z,7.82
2023-02-12T18:38:37.852Z,7.82
2023-02-12T18:41:14.868Z,7.84
2023-02-12T18:43:43.446Z,7.79
2023-02-12T18:46:15.412Z,7.81
2023-02-12T18:48:43.469Z,7.79
2023-02-12T18:51:14.131Z,7.78
2023-02-12T18:53:40.930Z,7.77
2023-02-12T18:56:09.609Z,7.72
2023-02-12T18:58:37.244Z,7.73
2023-02-12T19:01:15.835Z,7.74
2023-02-12T19:03:43.350Z,7.69
2023-02-12T19:06:10.622Z,7.69
2023-02-12T19:08:37.468Z,7.72
2023-02-12T19:11:07.054Z,7.73
2023-02-12T19:13:33.786Z,7.77
2023-02-12T19:16:06.465Z,7.75
2023-02-12T19:18:33.218Z,7.68
2023-02-12T19:20:59.930Z,7.72
2023-02-12T19:23:26.584Z,7.68
2023-02-12T19:25:53.283Z,7.69
2023-02-12T19:28:19.999Z,7.70
2023-02-12T19:30:46.770Z,7.61
2023-02-12T19:33:13.484Z,7.62
2023-02-12T19:35:42.247Z,7.66
2023-02-12T19:38:09.053Z,7.68
2023-02-12T19:40:35.787Z,7.61
2023-02-12T19:43:02.490Z,7.64
2023-02-12T19:45:29.138Z,7.59
2023-02-12T19:47:55.881Z,7.59
2023-02-12T19:50:22.934Z,7.56
2023-02-12T19:52:49.756Z,7.61
2023-02-12T19:55:16.522Z,7.61
2023-02-12T19:57:43.221Z,7.54
2023-02-12T20:00:10.593Z,7.64
2023-02-12T20:02:37.385Z,7.62
2023-02-12T20:05:04.229Z,7.64
2023-02-12T20:07:31.220Z,7.60
2023-02-12T20:09:57.973Z,7.59
2023-02-12T20:12:25.067Z,7.57
2023-02-12T20:14:55.166Z,7.55
2023-02-12T20:17:21.871Z,7.50
2023-02-12T20:19:48.658Z,7.54
2023-02-12T20:22:15.328Z,7.55
2023-02-12T20:24:42.086Z,7.50
2023-02-12T20:27:08.847Z,7.53
2023-02-12T20:29:35.594Z,7.49
2023-02-12T20:32:02.300Z,7.49
2023-02-12T20:34:30.404Z,7.46
2023-02-12T20:36:58.208Z,7.47
2023-02-12T20:39:25.181Z,7.50
2023-02-12T20:41:52.236Z,7.52
2023-02-12T20:44:20.626Z,7.49
2023-02-12T20:46:52.409Z,7.49
2023-02-12T20:49:22.576Z,7.49
2023-02-12T20:51:50.258Z,7.53
2023-02-12T20:54:17.422Z,7.55
2023-02-12T20:56:44.310Z,7.53
2023-02-12T20:59:12.097Z,7.45
2023-02-12T21:01:40.829Z,7.49
2023-02-12T21:04:12.150Z,7.50
2023-02-12T21:06:40.381Z,7.50
2023-02-12T21:09:11.822Z,7.52
2023-02-12T21:11:40.990Z,7.50
2023-02-12T21:14:21.166Z,7.53
2023-02-12T21:16:48.921Z,7.57
2023-02-12T21:19:16.024Z,7.53
2023-02-12T21:21:45.198Z,7.49
2023-02-12T21:24:16.672Z,7.54
2023-02-12T21:26:43.663Z,7.54
2023-02-12T21:29:10.464Z,7.50
2023-02-12T21:31:42.398Z,7.54
2023-02-12T21:34:12.736Z,7.52
2023-02-12T21:36:41.417Z,7.46
2023-02-12T21:39:11.583Z,7.51
2023-02-12T21:41:40.797Z,7.50
2023-02-12T21:44:16.996Z,7.48
2023-02-12T21:46:44.699Z,7.50
2023-02-12T21:49:23.258Z,7.49
2023-02-12T21:51:50.648Z,7.48
2023-02-12T21:54:17.413Z,7.47
2023-02-12T21:56:45.868Z,7.50
2023-02-12T21:59:14.111Z,7.48
2023-02-12T22:01:50.315Z,7.47
2023-02-12T22:04:18.381Z,7.48
2023-02-12T22:06:47.445Z,7.48
2023-02-12T22:09:16.637Z,7.51
2023-02-12T22:11:44.372Z,7.44
2023-02-12T22:14:16.639Z,7.42
2023-02-12T22:16:44.081Z,7.45
2023-02-12T22:19:11.263Z,7.47
2023-02-12T22:21:40.205Z,7.48
2023-02-12T22:24:09.531Z,7.41
2023-02-12T22:26:36.657Z,7.38
2023-02-12T22:29:07.018Z,7.39
2023-02-12T22:31:36.524Z,7.44
2023-02-12T22:34:06.523Z,7.38
2023-02-12T22:36:35.778Z,7.42
2023-02-12T22:39:02.522Z,7.41
2023-02-12T22:41:29.344Z,7.34
2023-02-12T22:44:01.714Z,7.41
2023-02-12T22:46:28.634Z,7.44
2023-02-12T22:48:55.340Z,7.43
2023-02-12T22:51:27.049Z,7.37
2023-02-12T22:53:54.647Z,7.37
2023-02-12T22:56:21.667Z,7.38
2023-02-12T22:58:48.379Z,7.37
2023-02-12T23:01:17.980Z,7.41
2023-02-12T23:03:45.523Z,7.42
2023-02-12T23:06:15.362Z,7.46
2023-02-12T23:08:42.913Z,7.42
2023-02-12T23:11:10.798Z,7.41
2023-02-12T23:13:37.866Z,7.43
2023-02-12T23:16:05.212Z,7.43
2023-02-12T23:18:32.152Z,7.41
2023-02-12T23:20:59.085Z,7.36
2023-02-12T23:23:26.177Z,7.45
2023-02-12T23:25:54.493Z,7.37
2023-02-12T23:28:22.341Z,7.39
2023-02-12T23:30:50.540Z,7.40
2023-02-12T23:33:17.880Z,7.39
2023-02-12T23:35:45.395Z,7.38
2023-02-12T23:38:12.513Z,7.40
2023-02-12T23:40:40.527Z,7.33
2023-02-12T23:43:07.614Z,7.34
2023-02-12T23:45:34.602Z,7.36
2023-02-12T23:48:01.287Z,7.41
2023-02-12T23:50:27.975Z,7.37
2023-02-12T23:52:54.665Z,7.34
2023-02-12T23:55:21.634Z,7.32
2023-02-12T23:57:49.712Z,7.34
